Time;durP1;ratioP1;P1;durP2;ratioP2;P2;SDS_P1;SDS_P2;PMS_P1;PMS_P2;Temp;Humidity;BMP_temperature;BMP_pressure;BME280_temperature;BME280_humidity;BME280_pressure;Samples;Min_cycle;Max_cycle;Signal;HPM_P1;HPM_P2
2021/09/15 00:00:54;;;;;;;23.85;12.55;;;;;;;14.63;71.23;100975.77;1780671;80;22320;-64
2021/09/15 00:03:21;;;;;;;17.57;11.48;;;;;;;14.62;71.20;100975.41;1780808;80;20860;-64
2021/09/15 00:05:49;;;;;;;15.30;11.53;;;;;;;14.63;71.09;100981.91;1780792;80;21357;-64
2021/09/15 00:08:16;;;;;;;17.73;12.55;;;;;;;14.63;71.00;100979.72;1743623;81;21465;-65
2021/09/15 00:10:45;;;;;;;14.00;10.00;;;;;;;14.61;70.98;100992.21;1743801;82;21003;-65
2021/09/15 00:13:12;;;;;;;13.80;10.05;;;;;;;14.57;70.96;100987.61;1717424;83;21149;-64
2021/09/15 00:15:40;;;;;;;17.37;10.68;;;;;;;14.54;70.89;100987.81;1780731;79;20833;-64
2021/09/15 00:18:09;;;;;;;15.30;10.03;;;;;;;14.51;70.99;100988.01;1780874;80;20829;-64
2021/09/15 00:20:37;;;;;;;17.92;10.30;;;;;;;14.50;71.05;100991.62;1780764;80;20924;-64
2021/09/15 00:23:06;;;;;;;16.50;9.23;;;;;;;14.46;71.02;100987.50;1780828;80;20915;-65
2021/09/15 00:25:33;;;;;;;14.38;9.68;;;;;;;14.43;71.11;100988.56;1780888;80;21164;-64
2021/09/15 00:27:59;;;;;;;16.42;9.35;;;;;;;14.41;71.10;100987.83;1780704;80;20880;-64
2021/09/15 00:30:26;;;;;;;19.02;10.23;;;;;;;14.38;71.09;100980.59;1786215;80;20856;-64
2021/09/15 00:32:53;;;;;;;19.98;10.18;;;;;;;14.36;71.24;100981.17;1786590;80;20923;-64
2021/09/15 00:35:20;;;;;;;14.47;9.35;;;;;;;14.33;71.35;100984.88;1786590;80;20903;-65
2021/09/15 00:37:47;;;;;;;16.05;8.98;;;;;;;14.31;71.33;100984.97;1786546;80;21151;-65
2021/09/15 00:40:14;;;;;;;17.50;10.13;;;;;;;14.28;71.44;100981.72;1786591;80;20923;-65
2021/09/15 00:42:42;;;;;;;13.90;9.88;;;;;;;14.28;71.34;100986.52;1786558;79;20903;-65
2021/09/15 00:45:11;;;;;;;16.77;9.90;;;;;;;14.27;71.09;100989.25;1786657;80;20900;-64
2021/09/15 00:47:40;;;;;;;16.97;9.25;;;;;;;14.26;70.95;100992.85;1786533;80;21325;-65
2021/09/15 00:50:09;;;;;;;17.70;10.10;;;;;;;14.23;70.93;100994.39;1786727;80;21814;-65
2021/09/15 00:52:36;;;;;;;16.95;9.88;;;;;;;14.20;70.91;100998.55;1786879;80;20912;-64
2021/09/15 00:55:07;;;;;;;15.10;10.60;;;;;;;14.16;70.96;101000.57;1786462;79;20979;-65
2021/09/15 00:57:36;;;;;;;16.40;9.28;;;;;;;14.13;71.02;100999.44;1786948;80;20963;-65
2021/09/15 01:00:06;;;;;;;13.53;9.53;;;;;;;14.09;71.07;100998.83;1786604;79;21439;-65
2021/09/15 01:02:34;;;;;;;19.48;10.15;;;;;;;14.06;71.16;100999.50;1786855;79;21120;-65
2021/09/15 01:05:04;;;;;;;12.13;8.78;;;;;;;14.01;71.19;100995.87;1785801;80;20871;-64
2021/09/15 01:07:35;;;;;;;12.55;9.13;;;;;;;14.00;71.37;101005.19;1786778;80;20931;-65
2021/09/15 01:10:04;;;;;;;16.55;9.40;;;;;;;13.96;71.37;100999.30;1786456;80;20923;-65
2021/09/15 01:12:35;;;;;;;16.77;9.00;;;;;;;13.94;71.41;101007.78;1786576;79;20923;-65
2021/09/15 01:15:19;;;;;;;12.10;8.68;;;;;;;13.91;71.49;101005.34;1743348;80;21237;-65
2021/09/15 01:17:50;;;;;;;18.12;9.33;;;;;;;13.86;71.54;101006.13;1754475;80;20895;-65
2021/09/15 01:20:26;;;;;;;12.55;8.28;;;;;;;13.83;71.63;101000.59;1717373;83;21043;-66
2021/09/15 01:23:08;;;;;;;18.30;8.73;;;;;;;13.78;71.69;101002.68;1680440;85;21425;-65
2021/09/15 01:25:53;;;;;;;13.50;8.33;;;;;;;13.75;71.72;101009.48;1680639;85;20979;-64
2021/09/15 01:28:28;;;;;;;15.48;9.65;;;;;;;13.72;71.99;100999.16;1680951;85;21149;-65
2021/09/15 01:30:58;;;;;;;14.25;8.18;;;;;;;13.70;71.96;100992.31;1651396;86;20966;-64
2021/09/15 01:33:28;;;;;;;11.73;7.90;;;;;;;13.67;71.99;100996.84;1687121;83;21452;-64
2021/09/15 01:35:55;;;;;;;14.98;9.33;;;;;;;13.66;72.04;100999.56;1687060;85;20959;-65
2021/09/15 01:38:22;;;;;;;19.62;9.30;;;;;;;13.63;71.96;100994.52;1687571;85;20931;-65
2021/09/15 01:40:51;;;;;;;15.23;9.00;;;;;;;13.60;71.89;101006.55;1687253;83;22038;-64
2021/09/15 01:43:18;;;;;;;12.53;8.73;;;;;;;13.57;71.91;101000.19;1687415;83;21438;-64
2021/09/15 01:45:45;;;;;;;16.55;9.40;;;;;;;13.52;71.99;101006.20;1687332;85;21460;-64
2021/09/15 01:48:19;;;;;;;12.30;9.05;;;;;;;13.45;72.08;101007.09;1687383;83;21014;-64
2021/09/15 01:50:48;;;;;;;15.68;8.88;;;;;;;13.41;72.09;101006.94;1687115;83;20903;-64
2021/09/15 01:53:16;;;;;;;14.38;8.43;;;;;;;13.36;72.15;101008.56;1687024;83;20950;-65
2021/09/15 01:55:43;;;;;;;14.30;8.33;;;;;;;13.30;72.23;101005.48;1687176;83;20975;-65
2021/09/15 01:58:32;;;;;;;11.00;7.78;;;;;;;13.29;72.47;101013.00;1708959;82;20967;-65
2021/09/15 02:01:19;;;;;;;11.22;8.68;;;;;;;13.22;72.72;101008.57;1752670;81;20931;-65
2021/09/15 02:03:51;;;;;;;16.02;8.48;;;;;;;13.19;72.92;101014.88;1750010;81;20935;-65
2021/09/15 02:06:21;;;;;;;10.50;7.22;;;;;;;13.16;73.07;101016.41;1752640;82;20868;-64
2021/09/15 02:08:52;;;;;;;11.28;7.75;;;;;;;13.13;73.20;101011.80;1752581;81;20891;-65
2021/09/15 02:11:20;;;;;;;11.75;7.25;;;;;;;13.10;73.35;101018.59;1750676;82;20962;-64
2021/09/15 02:13:49;;;;;;;11.57;8.03;;;;;;;13.10;73.47;101023.86;1752526;82;20911;-66
2021/09/15 02:16:16;;;;;;;43.48;12.10;;;;;;;13.09;73.50;101023.47;1752624;81;20931;-65
2021/09/15 02:18:46;;;;;;;30.25;11.05;;;;;;;13.05;73.47;101024.99;1752709;82;20935;-65
2021/09/15 02:21:20;;;;;;;56.58;28.30;;;;;;;13.09;73.41;101026.94;1750210;82;20864;-64
2021/09/15 02:24:06;;;;;;;284.18;137.57;;;;;;;13.06;73.24;101027.98;1752997;82;20935;-64
2021/09/15 02:26:34;;;;;;;376.18;179.53;;;;;;;13.06;73.02;101028.47;1750471;82;20903;-63
2021/09/15 02:29:04;;;;;;;238.82;114.80;;;;;;;13.05;73.00;101032.05;1756979;80;20990;-64
2021/09/15 02:31:39;;;;;;;279.73;138.55;;;;;;;13.03;73.07;101039.20;1785065;80;21231;-64
2021/09/15 02:34:19;;;;;;;236.87;118.25;;;;;;;13.00;73.09;101036.27;1782175;79;21441;-64
2021/09/15 02:36:48;;;;;;;169.30;85.77;;;;;;;12.97;73.08;101040.42;1783090;80;20959;-64
2021/09/15 02:39:19;;;;;;;139.15;68.47;;;;;;;12.92;73.12;101038.56;1784738;79;20947;-62
2021/09/15 02:41:57;;;;;;;109.67;51.18;;;;;;;12.87;73.18;101032.72;1784976;80;22077;-64
2021/09/15 02:44:38;;;;;;;48.10;25.35;;;;;;;12.82;73.20;101046.17;1785088;80;21369;-65
2021/09/15 02:47:19;;;;;;;47.90;24.12;;;;;;;12.79;73.28;101045.54;1785733;80;20875;-64
2021/09/15 02:49:50;;;;;;;58.38;28.55;;;;;;;12.76;73.37;101047.02;1783878;80;21394;-64
2021/09/15 02:52:38;;;;;;;47.95;26.10;;;;;;;12.72;73.41;101043.77;1783882;80;21418;-64
2021/09/15 02:55:25;;;;;;;25.77;12.15;;;;;;;12.69;73.44;101045.24;1786844;80;20961;-64
2021/09/15 02:57:54;;;;;;;25.32;13.18;;;;;;;12.64;73.57;101052.11;1787128;80;21143;-63
2021/09/15 03:00:24;;;;;;;27.65;14.50;;;;;;;12.61;73.66;101053.63;1785795;80;20951;-63
2021/09/15 03:02:53;;;;;;;28.98;13.58;;;;;;;12.58;73.47;101057.77;1782796;79;20884;-63
2021/09/15 03:05:32;;;;;;;30.30;17.23;;;;;;;12.55;73.37;101065.00;1760578;80;20876;-64
2021/09/15 03:08:13;;;;;;;29.42;14.83;;;;;;;12.51;73.45;101062.17;1784222;79;20871;-64
2021/09/15 03:10:40;;;;;;;28.10;16.30;;;;;;;12.47;73.54;101064.61;1786679;80;21866;-64
2021/09/15 03:13:09;;;;;;;32.95;14.98;;;;;;;12.43;73.63;101071.38;1786024;80;20985;-64
2021/09/15 03:15:36;;;;;;;24.00;13.45;;;;;;;12.41;73.68;101070.63;1786522;79;20919;-64
2021/09/15 03:18:05;;;;;;;32.98;14.00;;;;;;;12.39;73.71;101075.13;1786635;80;20927;-64
2021/09/15 03:20:32;;;;;;;20.52;11.05;;;;;;;12.39;73.80;101083.50;1786937;80;21334;-64
2021/09/15 03:22:59;;;;;;;19.73;9.48;;;;;;;12.37;73.90;101079.64;1786774;80;21191;-63
2021/09/15 03:25:26;;;;;;;18.40;10.45;;;;;;;12.36;73.90;101085.84;1786654;79;20920;-65
2021/09/15 03:27:53;;;;;;;16.17;10.28;;;;;;;12.35;73.89;101093.83;1786525;80;20875;-65
2021/09/15 03:30:20;;;;;;;21.00;10.53;;;;;;;12.32;73.78;101093.55;1783493;79;20927;-64
2021/09/15 03:32:47;;;;;;;18.30;10.98;;;;;;;12.30;73.76;101097.20;1780777;80;20868;-65
2021/09/15 03:35:14;;;;;;;21.15;10.53;;;;;;;12.26;73.78;101112.78;1780853;79;21114;-65
2021/09/15 03:37:41;;;;;;;20.90;11.15;;;;;;;12.20;73.82;101109.55;1780822;80;20919;-64
2021/09/15 03:40:11;;;;;;;19.20;10.78;;;;;;;12.17;74.01;101109.75;1780701;79;20911;-64
2021/09/15 03:42:38;;;;;;;21.37;9.93;;;;;;;12.16;74.26;101111.14;1743828;82;20980;-64
2021/09/15 03:45:06;;;;;;;16.93;9.73;;;;;;;12.12;74.41;101110.97;1717523;83;20925;-65
2021/09/15 03:47:35;;;;;;;19.95;11.48;;;;;;;12.12;74.55;101113.12;1780687;80;20974;-64
2021/09/15 03:50:04;;;;;;;17.62;10.32;;;;;;;12.10;74.70;101113.69;1780730;80;20908;-63
2021/09/15 03:52:31;;;;;;;20.90;10.68;;;;;;;12.09;74.82;101124.28;1780854;79;21318;-64
2021/09/15 03:54:59;;;;;;;23.90;10.03;;;;;;;12.07;74.83;101116.47;1780774;80;20963;-64
2021/09/15 03:57:27;;;;;;;24.05;10.75;;;;;;;12.06;74.89;101128.41;1780883;79;20896;-65
2021/09/15 03:59:56;;;;;;;20.30;11.22;;;;;;;12.05;74.95;101120.12;1780634;80;21157;-65
2021/09/15 04:02:23;;;;;;;15.55;10.40;;;;;;;12.05;75.01;101121.44;1780691;79;20900;-64
2021/09/15 04:04:51;;;;;;;31.87;10.80;;;;;;;12.05;75.00;101123.62;1781101;80;21365;-64
2021/09/15 04:07:19;;;;;;;13.25;9.53;;;;;;;12.06;75.00;101122.67;1743689;82;20920;-65
2021/09/15 04:09:47;;;;;;;20.48;10.90;;;;;;;12.10;75.05;101129.93;1717400;83;21007;-64
2021/09/15 04:12:15;;;;;;;28.70;10.50;;;;;;;12.14;75.10;101127.47;1780842;80;21830;-66
2021/09/15 04:14:43;;;;;;;23.85;10.53;;;;;;;12.18;75.03;101131.63;1743729;81;20916;-64
2021/09/15 04:17:10;;;;;;;18.48;9.90;;;;;;;12.19;74.98;101139.44;1717699;82;20925;-64
2021/09/15 04:19:37;;;;;;;24.43;12.15;;;;;;;12.22;74.96;101142.34;1780891;80;20951;-66
2021/09/15 04:22:06;;;;;;;23.57;10.28;;;;;;;12.24;74.93;101143.11;1780284;79;20970;-63
2021/09/15 04:31:11;;;;;;;25.35;10.50;;;;;;;12.27;74.89;101147.33;1780775;79;21136;-65
2021/09/15 04:32:40;;;;;;;31.20;10.90;;;;;;;12.39;75.08;101159.30;1786601;80;20955;-65
2021/09/15 04:35:09;;;;;;;23.12;9.30;;;;;;;12.44;75.08;101154.61;1786867;80;21397;-64
2021/09/15 04:37:37;;;;;;;24.10;9.75;;;;;;;12.50;75.11;101154.72;1758321;79;21143;-65
2021/09/15 04:40:07;;;;;;;25.50;10.43;;;;;;;12.58;75.16;101161.70;1786482;80;20914;-67
2021/09/15 04:42:34;;;;;;;25.57;9.50;;;;;;;12.71;75.15;101158.31;1758355;80;20982;-67
2021/09/15 04:45:01;;;;;;;16.27;9.28;;;;;;;12.87;75.01;101168.28;1786685;80;20907;-65
2021/09/15 04:47:28;;;;;;;48.00;10.28;;;;;;;13.02;74.90;101162.55;1786904;80;21475;-65
2021/09/15 04:49:56;;;;;;;31.12;10.20;;;;;;;13.25;74.62;101161.98;1786635;79;21221;-66
2021/09/15 04:52:23;;;;;;;31.85;9.10;;;;;;;13.66;74.44;101159.02;1786042;80;21570;-66
2021/09/15 04:54:50;;;;;;;28.25;7.53;;;;;;;14.38;73.53;101164.80;1786611;80;20919;-65
2021/09/15 04:57:21;;;;;;;15.35;6.95;;;;;;;15.25;71.31;101159.75;1784784;80;20896;-67
2021/09/15 04:59:48;;;;;;;19.77;7.53;;;;;;;16.13;68.68;101164.36;1785196;79;20876;-65
2021/09/15 05:02:15;;;;;;;19.10;6.22;;;;;;;17.83;63.11;101159.15;1786550;80;21294;-65
2021/09/15 05:04:45;;;;;;;23.25;6.97;;;;;;;18.58;60.72;101163.00;1786497;79;20954;-65
2021/09/15 05:07:17;;;;;;;17.62;6.10;;;;;;;18.58;60.72;101163.00;1785977;80;20951;-64
2021/09/15 05:09:45;;;;;;;22.22;6.15;;;;;;;19.28;58.34;101157.07;1786335;79;20970;-66
2021/09/15 05:12:12;;;;;;;12.35;4.58;;;;;;;19.95;56.16;101164.84;1786788;79;20962;-65
2021/09/15 05:14:39;;;;;;;20.10;5.75;;;;;;;20.55;54.09;101161.48;1786549;80;21141;-65
2021/09/15 05:17:06;;;;;;;19.30;6.65;;;;;;;21.10;52.58;101157.61;1786571;79;20974;-66
2021/09/15 05:19:36;;;;;;;13.55;4.58;;;;;;;21.57;50.74;101153.17;1786850;79;20918;-66
2021/09/15 05:22:04;;;;;;;13.70;5.30;;;;;;;21.90;48.63;101153.00;1786468;80;20966;-66
2021/09/15 05:24:33;;;;;;;12.03;5.12;;;;;;;22.25;48.31;101153.47;1786494;80;21384;-66
2021/09/15 05:27:00;;;;;;;9.45;3.87;;;;;;;22.66;47.13;101153.77;1786040;80;21141;-65
2021/09/15 05:29:27;;;;;;;12.03;4.78;;;;;;;23.10;46.18;101156.36;1786427;79;21505;-66
2021/09/15 05:31:54;;;;;;;7.97;5.20;;;;;;;23.48;44.74;101151.98;1750751;80;21073;-66
2021/09/15 05:34:22;;;;;;;6.67;5.17;;;;;;;23.61;43.18;101160.38;1780567;79;21606;-65
2021/09/15 05:36:50;;;;;;;8.93;5.80;;;;;;;23.58;42.23;101164.20;1780915;79;21445;-65
2021/09/15 05:39:17;;;;;;;6.90;6.20;;;;;;;23.67;42.30;101161.55;1780919;80;21100;-65
2021/09/15 05:41:44;;;;;;;7.30;5.80;;;;;;;23.74;41.66;101166.06;1781017;80;20990;-64
2021/09/15 05:44:11;;;;;;;11.93;7.25;;;;;;;23.78;41.28;101174.65;1780759;80;20876;-63
2021/09/15 05:46:41;;;;;;;14.87;6.00;;;;;;;23.84;41.46;101164.62;1780944;80;21382;-64
2021/09/15 05:49:08;;;;;;;9.93;5.10;;;;;;;24.13;41.64;101168.66;1780704;80;20900;-63
2021/09/15 05:51:37;;;;;;;149.70;15.88;;;;;;;24.52;41.23;101167.50;1780793;80;21152;-64
2021/09/15 05:54:05;;;;;;;13.70;6.85;;;;;;;24.94;40.04;101166.88;1780652;80;20920;-65
2021/09/15 05:56:32;;;;;;;32.30;7.83;;;;;;;25.28;39.34;101161.24;1780841;80;20912;-63
2021/09/15 05:58:59;;;;;;;55.63;9.43;;;;;;;25.67;38.86;101164.36;1780991;80;20986;-64
2021/09/15 06:01:26;;;;;;;8.48;5.58;;;;;;;26.10;38.14;101163.91;1780795;79;20959;-64
2021/09/15 06:03:54;;;;;;;96.02;10.25;;;;;;;26.48;37.53;101171.48;1780764;80;20994;-64
2021/09/15 06:06:27;;;;;;;42.00;7.33;;;;;;;26.80;36.57;101164.11;1744364;82;20948;-64
2021/09/15 06:08:54;;;;;;;6.33;4.85;;;;;;;27.12;35.76;101173.64;1717313;83;21032;-64
2021/09/15 06:11:21;;;;;;;9.35;5.10;;;;;;;27.48;34.99;101171.02;1780888;80;20984;-66
2021/09/15 06:13:50;;;;;;;79.17;10.78;;;;;;;27.74;34.47;101180.39;1780801;80;20832;-66
2021/09/15 06:16:16;;;;;;;30.95;5.35;;;;;;;28.03;33.90;101179.98;1743952;82;21038;-66
2021/09/15 06:18:45;;;;;;;7.80;4.80;;;;;;;28.21;33.26;101174.12;1743601;82;21069;-68
2021/09/15 06:21:19;;;;;;;29.57;6.03;;;;;;;28.21;32.71;101176.30;1660310;82;20901;-66
2021/09/15 06:24:07;;;;;;;9.65;3.67;;;;;;;28.17;33.10;101179.09;1783613;80;20908;-65
2021/09/15 06:26:35;;;;;;;4.40;3.92;;;;;;;28.34;32.97;101180.14;1782377;80;20994;-67
2021/09/15 06:29:02;;;;;;;20.30;4.83;;;;;;;28.45;32.32;101183.66;1781000;80;21489;-67
2021/09/15 06:31:29;;;;;;;7.53;3.85;;;;;;;28.56;31.98;101189.06;1784205;79;21390;-65
2021/09/15 06:33:56;;;;;;;8.80;3.92;;;;;;;28.64;31.22;101196.49;1786563;80;21417;-66
2021/09/15 06:36:23;;;;;;;6.47;3.72;;;;;;;28.33;31.11;101188.77;1758353;80;20994;-66
2021/09/15 06:38:50;;;;;;;6.30;4.08;;;;;;;28.16;31.13;101185.50;1786597;80;21330;-67
2021/09/15 06:41:19;;;;;;;17.15;4.10;;;;;;;28.13;31.44;101190.46;1786419;80;21155;-67
2021/09/15 06:43:46;;;;;;;7.17;3.12;;;;;;;28.35;31.40;101190.75;1786468;80;21453;-66
2021/09/15 06:46:14;;;;;;;11.55;3.20;;;;;;;28.63;31.19;101192.64;1786652;80;21495;-69
2021/09/15 06:48:42;;;;;;;4.47;3.17;;;;;;;28.87;30.86;101191.34;1786470;80;20954;-66
2021/09/15 06:51:11;;;;;;;9.63;3.37;;;;;;;29.07;30.17;101192.27;1786742;80;20884;-68
2021/09/15 06:53:38;;;;;;;18.20;4.10;;;;;;;28.95;29.44;101193.89;1786644;79;21141;-66
2021/09/15 06:56:07;;;;;;;41.70;5.65;;;;;;;28.92;29.99;101191.04;1786548;80;20923;-68
2021/09/15 06:58:36;;;;;;;6.05;2.67;;;;;;;29.05;29.35;101192.16;1786686;80;20967;-66
2021/09/15 07:01:06;;;;;;;5.10;3.00;;;;;;;29.23;29.18;101195.70;1786604;80;20959;-67
2021/09/15 07:03:32;;;;;;;5.90;2.98;;;;;;;29.37;28.36;101192.03;1787021;80;21418;-68
2021/09/15 07:05:59;;;;;;;10.03;2.20;;;;;;;29.66;27.73;101185.95;1786627;80;21112;-66
2021/09/15 07:08:26;;;;;;;5.45;2.20;;;;;;;29.96;27.29;101187.82;1786878;80;20884;-66
2021/09/15 07:10:53;;;;;;;2.87;1.52;;;;;;;30.08;25.87;101188.89;1786567;79;20915;-68
2021/09/15 07:13:21;;;;;;;5.00;1.82;;;;;;;29.93;25.01;101189.60;1758437;80;20863;-66
2021/09/15 07:15:48;;;;;;;3.67;1.30;;;;;;;29.72;25.65;101191.41;1786673;79;20915;-72
2021/09/15 07:18:14;;;;;;;5.70;2.45;;;;;;;29.58;24.88;101189.70;1787053;79;21099;-67
2021/09/15 07:20:41;;;;;;;6.83;1.65;;;;;;;29.18;24.63;101190.08;1786580;79;20875;-68
2021/09/15 07:23:09;;;;;;;3.22;2.12;;;;;;;28.91;25.10;101187.21;1786559;79;20844;-70
2021/09/15 07:25:37;;;;;;;5.17;2.20;;;;;;;28.94;25.15;101193.03;1786791;80;21418;-69
2021/09/15 07:28:04;;;;;;;3.20;1.52;;;;;;;28.94;24.92;101190.85;1786831;80;20954;-69
2021/09/15 07:30:31;;;;;;;4.95;1.27;;;;;;;29.19;24.98;101191.73;1786219;80;22062;-67
2021/09/15 07:32:58;;;;;;;4.72;1.40;;;;;;;29.30;24.75;101192.01;1780810;80;20974;-68
2021/09/15 07:35:25;;;;;;;3.12;1.60;;;;;;;29.17;23.68;101191.95;1780730;80;20959;-69
2021/09/15 07:37:52;;;;;;;6.47;1.77;;;;;;;29.08;23.72;101196.69;1780977;80;20880;-69
2021/09/15 07:40:19;;;;;;;8.60;2.40;;;;;;;28.82;22.50;101190.59;1780887;80;21403;-68
2021/09/15 07:42:47;;;;;;;2.75;1.67;;;;;;;28.71;22.15;101184.39;1780874;80;21778;-68
2021/09/15 07:45:14;;;;;;;6.17;2.12;;;;;;;28.65;22.41;101189.23;1780829;79;20864;-69
2021/09/15 07:47:41;;;;;;;4.75;2.08;;;;;;;28.61;23.00;101191.47;1781118;80;21429;-67
2021/09/15 07:50:09;;;;;;;3.55;1.87;;;;;;;28.85;23.90;101194.22;1780665;79;20967;-71
2021/09/15 07:52:36;;;;;;;2.65;1.80;;;;;;;29.19;22.38;101188.50;1780778;79;20970;-69
2021/09/15 07:55:04;;;;;;;6.35;1.85;;;;;;;29.45;21.72;101184.25;1780862;80;21103;-67
2021/09/15 07:57:31;;;;;;;1.85;1.55;;;;;;;29.42;21.26;101184.14;1780883;80;20895;-68
2021/09/15 07:59:58;;;;;;;4.80;1.60;;;;;;;29.45;21.42;101177.49;1780821;80;20971;-68
2021/09/15 08:02:25;;;;;;;3.80;1.50;;;;;;;29.61;21.23;101166.83;1781020;79;20963;-68
2021/09/15 08:04:52;;;;;;;3.00;0.90;;;;;;;29.73;21.35;101166.05;1781103;80;20892;-68
2021/09/15 08:07:18;;;;;;;2.80;1.30;;;;;;;29.88;20.99;101165.02;1780859;80;21787;-67
2021/09/15 08:09:45;;;;;;;4.15;1.75;;;;;;;30.11;20.40;101170.05;1780647;80;20943;-66
2021/09/15 08:12:12;;;;;;;3.17;1.17;;;;;;;30.22;20.01;101170.78;1780866;80;21012;-66
2021/09/15 08:14:40;;;;;;;3.62;1.20;;;;;;;30.29;19.63;101175.69;1780716;80;20887;-68
2021/09/15 08:17:08;;;;;;;4.33;1.62;;;;;;;30.30;19.11;101168.39;1780845;79;20970;-66
2021/09/15 08:19:36;;;;;;;1.25;0.85;;;;;;;30.32;18.51;101171.20;1780745;79;22023;-69
2021/09/15 08:22:03;;;;;;;2.98;1.10;;;;;;;30.30;18.17;101165.16;1780778;79;20927;-70
2021/09/15 08:24:29;;;;;;;1.87;0.80;;;;;;;30.18;18.50;101168.70;1780860;80;20856;-70
2021/09/15 08:26:56;;;;;;;4.05;0.93;;;;;;;30.33;18.83;101166.12;1780790;80;20943;-71
2021/09/15 08:29:23;;;;;;;1.62;0.80;;;;;;;30.49;18.55;101168.08;1780809;79;21361;-69
2021/09/15 08:31:50;;;;;;;2.33;1.25;;;;;;;30.69;17.86;101165.34;1783272;80;21114;-69
2021/09/15 08:34:17;;;;;;;2.20;1.20;;;;;;;30.94;17.32;101164.97;1786575;79;20891;-70
2021/09/15 08:36:44;;;;;;;5.10;1.35;;;;;;;30.98;16.92;101156.72;1786499;79;21010;-71
2021/09/15 08:39:12;;;;;;;1.00;0.90;;;;;;;31.15;17.47;101152.20;1786606;80;20876;-70
2021/09/15 08:41:40;;;;;;;3.15;0.88;;;;;;;31.28;16.29;101158.91;1786571;80;20868;-69
2021/09/15 08:44:07;;;;;;;1.20;1.10;;;;;;;31.40;16.74;101161.22;1786511;80;21987;-69
2021/09/15 08:46:34;;;;;;;4.97;1.30;;;;;;;31.55;16.98;101161.47;1786903;79;20880;-69
2021/09/15 08:49:02;;;;;;;2.02;1.10;;;;;;;31.58;15.93;101155.63;1786604;80;21424;-69
2021/09/15 08:51:32;;;;;;;2.33;1.07;;;;;;;31.64;15.86;101158.83;1786488;80;20923;-70
2021/09/15 08:54:00;;;;;;;2.70;1.00;;;;;;;31.71;15.14;101150.12;1734506;80;20891;-69
2021/09/15 08:56:27;;;;;;;5.22;1.45;;;;;;;31.58;15.91;101155.63;1786542;80;21842;-69
2021/09/15 08:58:54;;;;;;;2.12;1.05;;;;;;;31.34;14.97;101151.77;1786902;80;20994;-69
2021/09/15 09:01:25;;;;;;;6.92;1.42;;;;;;;31.44;15.75;101145.90;1786529;80;20939;-69
2021/09/15 09:03:55;;;;;;;1.30;1.10;;;;;;;31.67;15.61;101144.00;1786489;80;21525;-69
2021/09/15 09:06:30;;;;;;;2.47;1.22;;;;;;;31.78;14.71;101138.69;1786259;79;20900;-69
2021/09/15 09:08:57;;;;;;;2.05;1.52;;;;;;;31.74;14.32;101139.35;1786487;80;21988;-69
2021/09/15 09:11:27;;;;;;;2.60;1.22;;;;;;;31.74;14.54;101139.35;1786522;79;21006;-68
2021/09/15 09:14:01;;;;;;;1.75;1.25;;;;;;;31.63;14.18;101136.81;1786585;80;20946;-70
2021/09/15 09:16:48;;;;;;;1.15;0.90;;;;;;;31.41;14.90;101137.65;1786467;79;20927;-69
2021/09/15 09:19:20;;;;;;;4.03;1.75;;;;;;;31.42;15.00;101133.11;1786571;80;20962;-69
2021/09/15 09:21:50;;;;;;;3.72;1.30;;;;;;;31.43;14.92;101132.88;1786527;79;21143;-68
2021/09/15 09:24:25;;;;;;;5.40;1.52;;;;;;;31.42;14.28;101139.89;1786480;80;20888;-68
2021/09/15 09:27:00;;;;;;;5.60;1.10;;;;;;;31.54;15.05;101138.13;1786260;79;20915;-69
2021/09/15 09:29:35;;;;;;;2.98;1.10;;;;;;;31.65;14.95;101137.96;1786653;79;20868;-68
2021/09/15 09:32:08;;;;;;;6.12;1.67;;;;;;;31.64;14.48;101133.07;1786536;80;20875;-69
2021/09/15 09:34:46;;;;;;;2.62;1.40;;;;;;;31.61;14.51;101132.13;1786517;80;21134;-68
2021/09/15 09:37:19;;;;;;;1.40;1.30;;;;;;;31.70;14.58;101134.06;1786696;80;20875;-68
2021/09/15 09:39:55;;;;;;;4.22;1.10;;;;;;;31.75;14.62;101134.22;1786646;80;20939;-69
2021/09/15 09:42:28;;;;;;;4.10;1.17;;;;;;;31.72;14.14;101127.89;1788369;80;20888;-69
2021/09/15 09:45:10;;;;;;;1.47;1.12;;;;;;;31.56;15.06;101127.91;1787496;80;21381;-68
2021/09/15 09:47:38;;;;;;;2.42;0.98;;;;;;;31.49;15.11;101126.59;1788923;80;21088;-67
2021/09/15 09:50:18;;;;;;;1.95;1.20;;;;;;;31.61;15.45;101124.00;1789668;79;20966;-68
2021/09/15 09:53:00;;;;;;;7.30;1.40;;;;;;;31.74;15.32;101123.91;1787193;80;20912;-68
2021/09/15 09:55:33;;;;;;;2.30;0.90;;;;;;;31.89;15.73;101120.88;1786619;80;20923;-70
2021/09/15 09:58:03;;;;;;;2.00;0.98;;;;;;;31.96;15.35;101116.75;1786519;80;21345;-69
2021/09/15 10:00:30;;;;;;;3.22;0.95;;;;;;;32.04;14.93;101112.95;1786474;79;21369;-68
2021/09/15 10:02:59;;;;;;;0.90;0.78;;;;;;;31.88;14.94;101110.23;1786392;80;20961;-69
2021/09/15 10:05:26;;;;;;;3.02;0.90;;;;;;;31.65;15.41;101110.31;1786446;80;20998;-71
2021/09/15 10:07:53;;;;;;;1.52;0.75;;;;;;;31.48;15.44;101106.46;1786785;80;21468;-70
2021/09/15 10:10:20;;;;;;;1.72;0.80;;;;;;;31.24;15.91;101108.03;1786463;80;20825;-69
2021/09/15 10:12:50;;;;;;;4.50;1.47;;;;;;;31.29;16.23;101110.95;1786740;80;21107;-68
2021/09/15 10:15:17;;;;;;;1.98;0.90;;;;;;;31.49;16.21;101104.90;1786451;79;21001;-69
2021/09/15 10:17:52;;;;;;;0.57;0.50;;;;;;;31.62;15.92;101104.48;1786424;79;21033;-69
2021/09/15 10:20:28;;;;;;;3.83;1.07;;;;;;;31.80;15.89;101101.33;1786451;80;20875;-69
2021/09/15 10:22:55;;;;;;;3.02;0.75;;;;;;;31.83;15.90;101100.59;1786837;80;21001;-68
2021/09/15 10:25:37;;;;;;;1.15;0.82;;;;;;;31.97;16.01;101104.86;1786458;80;21556;-69
2021/09/15 10:28:06;;;;;;;2.77;0.98;;;;;;;32.12;16.08;101094.50;1786568;80;21372;-70
2021/09/15 10:30:50;;;;;;;2.20;0.80;;;;;;;32.31;15.50;101090.47;1786416;80;20915;-71
2021/09/15 10:33:41;;;;;;;4.12;0.95;;;;;;;32.31;15.49;101093.19;1781946;80;20954;-69
2021/09/15 10:36:22;;;;;;;2.05;1.35;;;;;;;32.06;14.71;101088.63;1780694;79;20923;-69
2021/09/15 10:38:56;;;;;;;5.83;0.98;;;;;;;31.93;14.64;101090.08;1780750;80;21159;-69
2021/09/15 10:41:45;;;;;;;3.33;1.42;;;;;;;31.84;15.07;101084.59;1780628;80;20848;-71
2021/09/15 10:47:14;;;;;;;6.25;1.07;;;;;;;31.82;15.55;101073.99;1798600;79;23162;-68
2021/09/15 10:49:42;;;;;;;2.25;1.00;;;;;;;31.84;15.68;101079.17;1742136;80;20947;-65
2021/09/15 10:52:15;;;;;;;2.40;0.95;;;;;;;31.90;14.88;101083.72;1758400;80;21131;-68
2021/09/15 10:54:48;;;;;;;6.50;1.10;;;;;;;31.82;14.48;101087.55;1724814;83;20924;-69
2021/09/15 10:57:23;;;;;;;5.10;0.80;;;;;;;31.68;14.70;101087.34;1725023;83;21390;-71
2021/09/15 10:59:58;;;;;;;3.15;1.15;;;;;;;31.65;14.91;101082.38;1723860;83;21456;-69
2021/09/15 11:02:36;;;;;;;3.35;0.90;;;;;;;31.58;14.67;101072.93;1724775;83;20880;-69
2021/09/15 11:05:31;;;;;;;2.17;1.00;;;;;;;31.40;15.18;101075.01;1725122;81;21378;-70
2021/09/15 11:07:58;;;;;;;1.72;0.47;;;;;;;31.29;15.36;101077.89;1724854;83;20986;-69
2021/09/15 11:10:36;;;;;;;11.68;1.50;;;;;;;31.32;14.97;101072.55;1724841;83;21038;-71
2021/09/15 11:13:15;;;;;;;2.92;1.00;;;;;;;30.98;14.89;101072.74;1724780;83;20959;-68
2021/09/15 11:15:52;;;;;;;1.45;0.93;;;;;;;30.61;15.59;101072.97;1724800;81;20864;-69
2021/09/15 11:18:27;;;;;;;3.75;0.90;;;;;;;30.53;15.93;101067.81;1724662;83;21344;-69
2021/09/15 11:21:03;;;;;;;3.12;0.90;;;;;;;30.52;16.16;101068.31;1724651;81;20875;-70
2021/09/15 11:23:30;;;;;;;3.35;1.17;;;;;;;30.37;15.79;101065.02;1724781;83;21010;-71
2021/09/15 11:25:58;;;;;;;2.67;0.80;;;;;;;30.11;16.23;101068.08;1724867;83;20943;-70
2021/09/15 11:28:25;;;;;;;1.85;1.20;;;;;;;29.87;16.48;101058.73;1724849;81;21010;-69
2021/09/15 11:31:00;;;;;;;4.85;0.90;;;;;;;29.45;17.06;101062.64;1724731;83;21528;-70
2021/09/15 11:33:36;;;;;;;2.75;0.75;;;;;;;28.98;16.94;101065.20;1724916;81;20884;-70
2021/09/15 11:36:09;;;;;;;2.55;0.93;;;;;;;28.47;16.94;101061.03;1724739;83;20903;-69
2021/09/15 11:38:41;;;;;;;4.60;1.20;;;;;;;28.09;17.73;101054.65;1724389;82;20896;-68
2021/09/15 11:41:17;;;;;;;3.45;0.65;;;;;;;27.65;18.35;101050.85;1725007;83;20951;-68